Barbara Foss — WYL4318 — position and weather

sailwx.info

Track history (hours):
 
Tides and Currents Weather Stations Pressure Air Temp Water Temp Dewpoint Dewpoint Depression Visibility Wind Speed Wind Dir Waves Ship Positions

Barbara Foss

Owner: Foss International, Inc, SEATTLE, WA. More information available from US FCC via Universal Licensing System and Coast Guard Vessel Documentation Center.

Last reported at 2016-Aug-29 04:33 UTC. Time now 2016-Aug-29 05:30 UTC.
Position N 35°22' W 121°51'.

Length 40 m; draft 5 m.

Type: Towing. MMSI: 366932130.

Date/timePositionNaut miles runAvg speedWind from/ knotsBaromVisibWave heightAir tempDewpointWater temp
2016-Aug-29 04:33N 35°22' W 121°51'1212.0
2016-Aug-29 03:33N 35°32' W 121°59'1411.9
2016-Aug-29 02:21N 35°44' W 122°09'911.9
2016-Aug-29 01:33N 35°52' W 122°15'1211.9
2016-Aug-29 00:33N 36°02' W 122°23'1212.0
2016-Aug-28 23:33N 36°12' W 122°31'1312.1
2016-Aug-28 22:28N 36°23' W 122°40'1112.2
2016-Aug-28 21:33N 36°32' W 122°48'1211.8
2016-Aug-28 20:33N 36°42' W 122°56'1111.0
2016-Aug-28 19:33N 36°51' W 123°03'9 9.2
2016-Aug-28 18:33N 36°59' W 123°09'9 8.8
2016-Aug-28 17:33N 37°07' W 123°15'9 8.8
2016-Aug-28 16:29N 37°14' W 123°22'21 8.6
2016-Aug-28 14:05N 37°32' W 123°36'4 8.5
2016-Aug-28 13:33N 37°35' W 123°39'1111.1
2016-Aug-28 12:33N 37°45' W 123°47'1211.9
2016-Aug-28 11:33N 37°55' W 123°55'1212.0
2016-Aug-28 10:33N 38°05' W 124°03'1512.2
2016-Aug-28 09:20N 38°17' W 124°14'34611.6
2016-Aug-27 03:31N 43°60' W 125°16'1212.8
2016-Aug-27 02:33N 44°12' W 125°17'1612.1
2016-Aug-27 01:12N 44°29' W 125°16'812.0
2016-Aug-27 00:33N 44°36' W 125°16'1212.2
2016-Aug-26 23:33N 44°48' W 125°17'1010.1
2016-Aug-26 22:33N 44°58' W 125°16'9 8.9
2016-Aug-26 21:33N 45°07' W 125°17'9 8.6
2016-Aug-26 20:33N 45°16' W 125°17'9 9.1
2016-Aug-26 19:33N 45°25' W 125°17'9 9.3
2016-Aug-26 18:33N 45°34' W 125°17'9 9.1
2016-Aug-26 17:33N 45°43' W 125°17'9 9.1
2016-Aug-26 16:33N 45°53' W 125°17'10 9.7
2016-Aug-26 15:33N 46°02' W 125°17'9 9.4
2016-Aug-26 14:33N 46°12' W 125°17'1211.8
2016-Aug-26 13:33N 46°23' W 125°17'1212.2
2016-Aug-26 12:33N 46°36' W 125°17'1212.4
2016-Aug-26 11:33N 46°48' W 125°17'1212.2
2016-Aug-26 10:33N 47°00' W 125°17'1212.2
2016-Aug-26 09:33N 47°12' W 125°17'1212.5
2016-Aug-26 08:33N 47°25' W 125°17'1312.9
2016-Aug-26 07:33N 47°38' W 125°17'4912.2
2016-Aug-26 03:30N 48°26' W 125°07'1010.5
2016-Aug-26 02:31N 48°28' W 124°51'1111.5
2016-Aug-26 01:33N 48°25' W 124°35'1312.6
2016-Aug-26 00:33N 48°20' W 124°18'1612.6
2016-Aug-25 23:15N 48°13' W 123°56'912.5
2016-Aug-25 22:33N 48°13' W 123°42'1313.0
2016-Aug-25 21:32N 48°14' W 123°23'1313.3
2016-Aug-25 20:33N 48°13' W 123°03'1512.2
2016-Aug-25 19:16N 48°08' W 122°41'911.3
2016-Aug-25 18:29N 47°60' W 122°36'1011.1
2016-Aug-25 17:33N 47°51' W 122°27'1211.6
2016-Aug-25 16:33N 47°39' W 122°27'3 3.0
2016-Aug-25 15:32N 47°38' W 122°23'0 0.0
2016-Aug-25 14:33N 47°38' W 122°23'0 0.0
2016-Aug-25 13:34N 47°38' W 122°23'0 0.0
2016-Aug-25 12:33N 47°38' W 122°23'0 0.0
2016-Aug-25 11:33N 47°38' W 122°23'0 0.0
2016-Aug-25 10:33N 47°38' W 122°23'0 0.0
2016-Aug-25 09:33N 47°38' W 122°23'0 0.0
2016-Aug-25 08:33N 47°38' W 122°23'0 0.0
2016-Aug-25 07:33N 47°38' W 122°23'0 0.0
2016-Aug-25 06:33N 47°38' W 122°23'0 0.0
2016-Aug-25 04:33N 47°38' W 122°23'0 0.0
2016-Aug-25 03:33N 47°38' W 122°23'0 0.0
2016-Aug-25 02:34N 47°38' W 122°23'0 0.0
2016-Aug-25 01:33N 47°38' W 122°23'0 0.0
2016-Aug-25 00:33N 47°38' W 122°23'0 0.0
2016-Aug-24 23:33N 47°38' W 122°23'0 0.0
2016-Aug-24 22:33N 47°38' W 122°23'0 0.0
2016-Aug-24 21:33N 47°38' W 122°23'0 0.0
2016-Aug-24 20:33N 47°38' W 122°23'0 0.0
2016-Aug-24 19:33N 47°38' W 122°23'0 0.0
2016-Aug-24 18:33N 47°38' W 122°23'0 0.0
2016-Aug-24 17:33N 47°38' W 122°23'0 0.0
2016-Aug-24 16:33N 47°38' W 122°23'0 0.0
2016-Aug-24 15:33N 47°38' W 122°23'0 0.0
2016-Aug-24 14:33N 47°38' W 122°23'0 0.0
2016-Aug-24 13:30N 47°38' W 122°23'0 0.0
2016-Aug-24 12:33N 47°38' W 122°23'0 0.0
2016-Aug-24 11:33N 47°38' W 122°23'0 0.0
2016-Aug-24 10:33N 47°38' W 122°23'0 0.0
2016-Aug-24 09:33N 47°38' W 122°23'0 0.0
2016-Aug-24 08:33N 47°38' W 122°23'0 0.0
2016-Aug-24 07:33N 47°38' W 122°23'0 0.0
2016-Aug-24 06:33N 47°38' W 122°23'0 0.0
2016-Aug-24 04:33N 47°38' W 122°23'0 0.0
2016-Aug-24 03:33N 47°38' W 122°23'0 0.0
2016-Aug-24 02:33N 47°38' W 122°23'0 0.0
2016-Aug-24 01:33N 47°38' W 122°23'0 0.0
2016-Aug-24 00:33N 47°38' W 122°23'0 0.0
2016-Aug-23 23:33N 47°38' W 122°23'0 0.0
2016-Aug-23 22:33N 47°38' W 122°23'0 0.0
2016-Aug-23 21:33N 47°38' W 122°23'0 0.0
2016-Aug-23 20:33N 47°38' W 122°23'0 0.0
2016-Aug-23 19:33N 47°38' W 122°23'0 0.0
2016-Aug-23 18:30N 47°38' W 122°23'0 0.0
2016-Aug-23 17:33N 47°38' W 122°23'0 0.0
2016-Aug-23 16:33N 47°38' W 122°23'0 0.0
2016-Aug-23 15:33N 47°38' W 122°23'0 0.0
2016-Aug-23 14:33N 47°38' W 122°23'0 0.0
2016-Aug-23 13:33N 47°38' W 122°23'0 0.0
2016-Aug-23 12:33N 47°38' W 122°23'0 0.0
2016-Aug-23 11:33N 47°38' W 122°23'0 0.0
2016-Aug-23 10:33N 47°38' W 122°23'0 0.0
2016-Aug-23 09:33N 47°38' W 122°23'0 0.0
2016-Aug-23 08:33N 47°38' W 122°23'0 0.0
2016-Aug-23 07:33N 47°38' W 122°23'0 0.0
2016-Aug-23 06:33N 47°38' W 122°23'0 0.0
2016-Aug-23 05:33N 47°38' W 122°23'0 0.0
2016-Aug-23 04:33N 47°38' W 122°23'0 0.0
2016-Aug-23 03:33N 47°38' W 122°23'0 0.0
2016-Aug-23 02:33N 47°38' W 122°23'0 0.0
2016-Aug-23 01:33N 47°38' W 122°23'0 0.0
2016-Aug-23 00:33N 47°38' W 122°23'0 0.0
2016-Aug-22 23:33N 47°38' W 122°23'0 0.0
2016-Aug-22 22:33N 47°38' W 122°23'0 0.0
2016-Aug-22 21:33N 47°38' W 122°23'0 0.0
2016-Aug-22 20:32N 47°38' W 122°23'0 0.0
2016-Aug-22 19:34N 47°38' W 122°23'0 0.0
2016-Aug-22 18:33N 47°38' W 122°23'0 0.0
2016-Aug-22 17:33N 47°38' W 122°23'0 0.0
2016-Aug-22 16:33N 47°38' W 122°23'0 0.0
2016-Aug-22 15:32N 47°38' W 122°23'0 0.0
2016-Aug-22 14:33N 47°38' W 122°23'0 0.0
2016-Aug-22 13:33N 47°38' W 122°23'0 0.0
2016-Aug-22 12:32N 47°38' W 122°23'0 0.0
2016-Aug-22 11:32N 47°38' W 122°23'0 0.0
2016-Aug-22 10:32N 47°38' W 122°23'0 0.0
2016-Aug-22 09:32N 47°38' W 122°23'0 0.0
2016-Aug-22 08:32N 47°38' W 122°23'0 0.0
2016-Aug-22 07:32N 47°38' W 122°23'0 0.0
2016-Aug-22 06:32N 47°38' W 122°23'0 0.0
2016-Aug-22 05:33N 47°38' W 122°23'0 0.0
2016-Aug-22 04:33N 47°38' W 122°23'0 0.0
2016-Aug-22 03:33N 47°38' W 122°23'0 0.0
2016-Aug-22 02:33N 47°38' W 122°23'0 0.0
2016-Aug-22 01:32N 47°38' W 122°23'0 0.0
2016-Aug-22 00:33N 47°38' W 122°23'0 0.0
2016-Aug-21 23:32N 47°38' W 122°23'0 0.0
2016-Aug-21 22:32N 47°38' W 122°23'0 0.0
2016-Aug-21 21:32N 47°38' W 122°23'0 0.0
2016-Aug-21 20:33N 47°38' W 122°23'0 0.0
2016-Aug-21 19:32N 47°38' W 122°23'0 0.0
2016-Aug-21 18:32N 47°38' W 122°23'0 0.0
2016-Aug-21 17:33N 47°38' W 122°23'0 0.0
2016-Aug-21 16:32N 47°38' W 122°23'0 0.0
2016-Aug-21 15:33N 47°38' W 122°23'0 0.0
2016-Aug-21 14:33N 47°38' W 122°23'0 0.0
2016-Aug-21 13:33N 47°38' W 122°23'0 0.0
2016-Aug-21 12:33N 47°38' W 122°23'0 0.0
2016-Aug-21 11:33N 47°38' W 122°23'0 0.0
2016-Aug-21 10:32N 47°38' W 122°23'0 0.0
2016-Aug-21 09:32N 47°38' W 122°23'0 0.0
2016-Aug-21 08:33N 47°38' W 122°23'0 0.0
2016-Aug-21 07:33N 47°38' W 122°23'0 0.0
2016-Aug-21 06:33N 47°38' W 122°23'0 0.0
2016-Aug-21 05:33N 47°38' W 122°23'0 0.0
2016-Aug-21 04:33N 47°38' W 122°23'0 0.0
2016-Aug-21 03:33N 47°38' W 122°23'0 0.0
2016-Aug-21 02:33N 47°38' W 122°23'0 0.0
2016-Aug-21 01:33N 47°38' W 122°23'0 0.0
2016-Aug-21 00:33N 47°38' W 122°23'0 0.0
2016-Aug-20 23:33N 47°38' W 122°23'0 0.0
2016-Aug-20 22:32N 47°38' W 122°23'0 0.0
2016-Aug-20 21:33N 47°38' W 122°23'0 0.0
2016-Aug-20 20:33N 47°38' W 122°23'0 0.0
2016-Aug-20 19:33N 47°38' W 122°23'0 0.0
2016-Aug-20 18:33N 47°38' W 122°23'0 0.0
2016-Aug-20 17:33N 47°38' W 122°23'0 0.0
2016-Aug-20 16:33N 47°38' W 122°23'0 0.0
2016-Aug-20 15:33N 47°38' W 122°23'0 0.0
2016-Aug-20 14:33N 47°38' W 122°23'0 0.0
2016-Aug-20 13:33N 47°38' W 122°23'0 0.0
2016-Aug-20 12:33N 47°38' W 122°23'0 0.0
2016-Aug-20 11:33N 47°38' W 122°23'0 0.0
2016-Aug-20 10:32N 47°38' W 122°23'0 0.0
2016-Aug-20 09:33N 47°38' W 122°23'0 0.0
2016-Aug-20 08:33N 47°38' W 122°23'0 0.0
2016-Aug-20 07:33N 47°38' W 122°23'0 0.0
2016-Aug-20 06:32N 47°38' W 122°23'0 0.0
2016-Aug-20 05:32N 47°38' W 122°23'0 0.0
2016-Aug-20 04:32N 47°38' W 122°23'0 0.0
2016-Aug-20 03:32N 47°38' W 122°23'0 0.0
2016-Aug-20 02:32N 47°38' W 122°23'0 0.0
2016-Aug-20 01:32N 47°38' W 122°23'0 0.0
2016-Aug-20 00:32N 47°38' W 122°23'0 0.0
2016-Aug-19 23:11N 47°38' W 122°23'0 0.0
2016-Aug-19 22:29N 47°38' W 122°23'0 0.0
2016-Aug-19 21:27N 47°38' W 122°23'0 0.0
2016-Aug-19 20:17N 47°38' W 122°23'0 0.0
2016-Aug-19 19:23N 47°38' W 122°23'0 0.0
2016-Aug-19 18:32N 47°38' W 122°23'0 0.0
2016-Aug-19 17:29N 47°38' W 122°23'0 0.0
2016-Aug-19 15:29N 47°38' W 122°23'0 0.0
2016-Aug-19 14:32N 47°38' W 122°23'0 0.0
2016-Aug-19 13:32N 47°38' W 122°23'0 0.0
2016-Aug-19 12:26N 47°38' W 122°23'0 0.0
2016-Aug-19 11:29N 47°38' W 122°23'0 0.0
2016-Aug-19 10:32N 47°38' W 122°23'0 0.0
2016-Aug-19 09:32N 47°38' W 122°23'0 0.0
2016-Aug-19 08:32N 47°38' W 122°23'0 0.0
2016-Aug-19 07:32N 47°38' W 122°23'0 0.0
2016-Aug-19 06:32N 47°38' W 122°23'0 0.0
2016-Aug-19 05:33N 47°38' W 122°23'  
Track history (hours):
 
Tides and Currents Weather Stations Pressure Air Temp Water Temp Dewpoint Dewpoint Depression Visibility Wind Speed Wind Dir Waves Ship Positions

Barbara Foss

Owner: Foss International, Inc, SEATTLE, WA. More information available from US FCC via Universal Licensing System and Coast Guard Vessel Documentation Center.

Last reported at 2016-Aug-29 04:33 UTC. Time now 2016-Aug-29 05:30 UTC.
Position N 35°22' W 121°51'.

Length 40 m; draft 5 m.

Type: Towing. MMSI: 366932130.

Date/timePositionNaut miles runAvg speedWind from/ knotsBaromVisibWave heightAir tempDewpointWater temp
2016-Aug-29 04:33N 35°22' W 121°51'1212.0
2016-Aug-29 03:33N 35°32' W 121°59'1411.9
2016-Aug-29 02:21N 35°44' W 122°09'911.9
2016-Aug-29 01:33N 35°52' W 122°15'1211.9
2016-Aug-29 00:33N 36°02' W 122°23'1212.0
2016-Aug-28 23:33N 36°12' W 122°31'1312.1
2016-Aug-28 22:28N 36°23' W 122°40'1112.2
2016-Aug-28 21:33N 36°32' W 122°48'1211.8
2016-Aug-28 20:33N 36°42' W 122°56'1111.0
2016-Aug-28 19:33N 36°51' W 123°03'9 9.2
2016-Aug-28 18:33N 36°59' W 123°09'9 8.8
2016-Aug-28 17:33N 37°07' W 123°15'9 8.8
2016-Aug-28 16:29N 37°14' W 123°22'21 8.6
2016-Aug-28 14:05N 37°32' W 123°36'4 8.5
2016-Aug-28 13:33N 37°35' W 123°39'1111.1
2016-Aug-28 12:33N 37°45' W 123°47'1211.9
2016-Aug-28 11:33N 37°55' W 123°55'1212.0
2016-Aug-28 10:33N 38°05' W 124°03'1512.2
2016-Aug-28 09:20N 38°17' W 124°14'34611.6
2016-Aug-27 03:31N 43°60' W 125°16'1212.8
2016-Aug-27 02:33N 44°12' W 125°17'1612.1
2016-Aug-27 01:12N 44°29' W 125°16'812.0
2016-Aug-27 00:33N 44°36' W 125°16'1212.2
2016-Aug-26 23:33N 44°48' W 125°17'1010.1
2016-Aug-26 22:33N 44°58' W 125°16'9 8.9
2016-Aug-26 21:33N 45°07' W 125°17'9 8.6
2016-Aug-26 20:33N 45°16' W 125°17'9 9.1
2016-Aug-26 19:33N 45°25' W 125°17'9 9.3
2016-Aug-26 18:33N 45°34' W 125°17'9 9.1
2016-Aug-26 17:33N 45°43' W 125°17'9 9.1
2016-Aug-26 16:33N 45°53' W 125°17'10 9.7
2016-Aug-26 15:33N 46°02' W 125°17'9 9.4
2016-Aug-26 14:33N 46°12' W 125°17'1211.8
2016-Aug-26 13:33N 46°23' W 125°17'1212.2
2016-Aug-26 12:33N 46°36' W 125°17'1212.4
2016-Aug-26 11:33N 46°48' W 125°17'1212.2
2016-Aug-26 10:33N 47°00' W 125°17'1212.2
2016-Aug-26 09:33N 47°12' W 125°17'1212.5
2016-Aug-26 08:33N 47°25' W 125°17'1312.9
2016-Aug-26 07:33N 47°38' W 125°17'4912.2
2016-Aug-26 03:30N 48°26' W 125°07'1010.5
2016-Aug-26 02:31N 48°28' W 124°51'1111.5
2016-Aug-26 01:33N 48°25' W 124°35'1312.6
2016-Aug-26 00:33N 48°20' W 124°18'1612.6
2016-Aug-25 23:15N 48°13' W 123°56'912.5
2016-Aug-25 22:33N 48°13' W 123°42'1313.0
2016-Aug-25 21:32N 48°14' W 123°23'1313.3
2016-Aug-25 20:33N 48°13' W 123°03'1512.2
2016-Aug-25 19:16N 48°08' W 122°41'911.3
2016-Aug-25 18:29N 47°60' W 122°36'1011.1
2016-Aug-25 17:33N 47°51' W 122°27'1211.6
2016-Aug-25 16:33N 47°39' W 122°27'3 3.0
2016-Aug-25 15:32N 47°38' W 122°23'0 0.0
2016-Aug-25 14:33N 47°38' W 122°23'0 0.0
2016-Aug-25 13:34N 47°38' W 122°23'0 0.0
2016-Aug-25 12:33N 47°38' W 122°23'0 0.0
2016-Aug-25 11:33N 47°38' W 122°23'0 0.0
2016-Aug-25 10:33N 47°38' W 122°23'0 0.0
2016-Aug-25 09:33N 47°38' W 122°23'0 0.0
2016-Aug-25 08:33N 47°38' W 122°23'0 0.0
2016-Aug-25 07:33N 47°38' W 122°23'0 0.0
2016-Aug-25 06:33N 47°38' W 122°23'0 0.0
2016-Aug-25 04:33N 47°38' W 122°23'0 0.0
2016-Aug-25 03:33N 47°38' W 122°23'0 0.0
2016-Aug-25 02:34N 47°38' W 122°23'0 0.0
2016-Aug-25 01:33N 47°38' W 122°23'0 0.0
2016-Aug-25 00:33N 47°38' W 122°23'0 0.0
2016-Aug-24 23:33N 47°38' W 122°23'0 0.0
2016-Aug-24 22:33N 47°38' W 122°23'0 0.0
2016-Aug-24 21:33N 47°38' W 122°23'0 0.0
2016-Aug-24 20:33N 47°38' W 122°23'0 0.0
2016-Aug-24 19:33N 47°38' W 122°23'0 0.0
2016-Aug-24 18:33N 47°38' W 122°23'0 0.0
2016-Aug-24 17:33N 47°38' W 122°23'0 0.0
2016-Aug-24 16:33N 47°38' W 122°23'0 0.0
2016-Aug-24 15:33N 47°38' W 122°23'0 0.0
2016-Aug-24 14:33N 47°38' W 122°23'0 0.0
2016-Aug-24 13:30N 47°38' W 122°23'0 0.0
2016-Aug-24 12:33N 47°38' W 122°23'0 0.0
2016-Aug-24 11:33N 47°38' W 122°23'0 0.0
2016-Aug-24 10:33N 47°38' W 122°23'0 0.0
2016-Aug-24 09:33N 47°38' W 122°23'0 0.0
2016-Aug-24 08:33N 47°38' W 122°23'0 0.0
2016-Aug-24 07:33N 47°38' W 122°23'0 0.0
2016-Aug-24 06:33N 47°38' W 122°23'0 0.0
2016-Aug-24 04:33N 47°38' W 122°23'0 0.0
2016-Aug-24 03:33N 47°38' W 122°23'0 0.0
2016-Aug-24 02:33N 47°38' W 122°23'0 0.0
2016-Aug-24 01:33N 47°38' W 122°23'0 0.0
2016-Aug-24 00:33N 47°38' W 122°23'0 0.0
2016-Aug-23 23:33N 47°38' W 122°23'0 0.0
2016-Aug-23 22:33N 47°38' W 122°23'0 0.0
2016-Aug-23 21:33N 47°38' W 122°23'0 0.0
2016-Aug-23 20:33N 47°38' W 122°23'0 0.0
2016-Aug-23 19:33N 47°38' W 122°23'0 0.0
2016-Aug-23 18:30N 47°38' W 122°23'0 0.0
2016-Aug-23 17:33N 47°38' W 122°23'0 0.0
2016-Aug-23 16:33N 47°38' W 122°23'0 0.0
2016-Aug-23 15:33N 47°38' W 122°23'0 0.0
2016-Aug-23 14:33N 47°38' W 122°23'0 0.0
2016-Aug-23 13:33N 47°38' W 122°23'0 0.0
2016-Aug-23 12:33N 47°38' W 122°23'0 0.0
2016-Aug-23 11:33N 47°38' W 122°23'0 0.0
2016-Aug-23 10:33N 47°38' W 122°23'0 0.0
2016-Aug-23 09:33N 47°38' W 122°23'0 0.0
2016-Aug-23 08:33N 47°38' W 122°23'0 0.0
2016-Aug-23 07:33N 47°38' W 122°23'0 0.0
2016-Aug-23 06:33N 47°38' W 122°23'0 0.0
2016-Aug-23 05:33N 47°38' W 122°23'0 0.0
2016-Aug-23 04:33N 47°38' W 122°23'0 0.0
2016-Aug-23 03:33N 47°38' W 122°23'0 0.0
2016-Aug-23 02:33N 47°38' W 122°23'0 0.0
2016-Aug-23 01:33N 47°38' W 122°23'0 0.0
2016-Aug-23 00:33N 47°38' W 122°23'0 0.0
2016-Aug-22 23:33N 47°38' W 122°23'0 0.0
2016-Aug-22 22:33N 47°38' W 122°23'0 0.0
2016-Aug-22 21:33N 47°38' W 122°23'0 0.0
2016-Aug-22 20:32N 47°38' W 122°23'0 0.0
2016-Aug-22 19:34N 47°38' W 122°23'0 0.0
2016-Aug-22 18:33N 47°38' W 122°23'0 0.0
2016-Aug-22 17:33N 47°38' W 122°23'0 0.0
2016-Aug-22 16:33N 47°38' W 122°23'0 0.0
2016-Aug-22 15:32N 47°38' W 122°23'0 0.0
2016-Aug-22 14:33N 47°38' W 122°23'0 0.0
2016-Aug-22 13:33N 47°38' W 122°23'0 0.0
2016-Aug-22 12:32N 47°38' W 122°23'0 0.0
2016-Aug-22 11:32N 47°38' W 122°23'0 0.0
2016-Aug-22 10:32N 47°38' W 122°23'0 0.0
2016-Aug-22 09:32N 47°38' W 122°23'0 0.0
2016-Aug-22 08:32N 47°38' W 122°23'0 0.0
2016-Aug-22 07:32N 47°38' W 122°23'0 0.0
2016-Aug-22 06:32N 47°38' W 122°23'0 0.0
2016-Aug-22 05:33N 47°38' W 122°23'0 0.0
2016-Aug-22 04:33N 47°38' W 122°23'0 0.0
2016-Aug-22 03:33N 47°38' W 122°23'0 0.0
2016-Aug-22 02:33N 47°38' W 122°23'0 0.0
2016-Aug-22 01:32N 47°38' W 122°23'0 0.0
2016-Aug-22 00:33N 47°38' W 122°23'0 0.0
2016-Aug-21 23:32N 47°38' W 122°23'0 0.0
2016-Aug-21 22:32N 47°38' W 122°23'0 0.0
2016-Aug-21 21:32N 47°38' W 122°23'0 0.0
2016-Aug-21 20:33N 47°38' W 122°23'0 0.0
2016-Aug-21 19:32N 47°38' W 122°23'0 0.0
2016-Aug-21 18:32N 47°38' W 122°23'0 0.0
2016-Aug-21 17:33N 47°38' W 122°23'0 0.0
2016-Aug-21 16:32N 47°38' W 122°23'0 0.0
2016-Aug-21 15:33N 47°38' W 122°23'0 0.0
2016-Aug-21 14:33N 47°38' W 122°23'0 0.0
2016-Aug-21 13:33N 47°38' W 122°23'0 0.0
2016-Aug-21 12:33N 47°38' W 122°23'0 0.0
2016-Aug-21 11:33N 47°38' W 122°23'0 0.0
2016-Aug-21 10:32N 47°38' W 122°23'0 0.0
2016-Aug-21 09:32N 47°38' W 122°23'0 0.0
2016-Aug-21 08:33N 47°38' W 122°23'0 0.0
2016-Aug-21 07:33N 47°38' W 122°23'0 0.0
2016-Aug-21 06:33N 47°38' W 122°23'0 0.0
2016-Aug-21 05:33N 47°38' W 122°23'0 0.0
2016-Aug-21 04:33N 47°38' W 122°23'0 0.0
2016-Aug-21 03:33N 47°38' W 122°23'0 0.0
2016-Aug-21 02:33N 47°38' W 122°23'0 0.0
2016-Aug-21 01:33N 47°38' W 122°23'0 0.0
2016-Aug-21 00:33N 47°38' W 122°23'0 0.0
2016-Aug-20 23:33N 47°38' W 122°23'0 0.0
2016-Aug-20 22:32N 47°38' W 122°23'0 0.0
2016-Aug-20 21:33N 47°38' W 122°23'0 0.0
2016-Aug-20 20:33N 47°38' W 122°23'0 0.0
2016-Aug-20 19:33N 47°38' W 122°23'0 0.0
2016-Aug-20 18:33N 47°38' W 122°23'0 0.0
2016-Aug-20 17:33N 47°38' W 122°23'0 0.0
2016-Aug-20 16:33N 47°38' W 122°23'0 0.0
2016-Aug-20 15:33N 47°38' W 122°23'0 0.0
2016-Aug-20 14:33N 47°38' W 122°23'0 0.0
2016-Aug-20 13:33N 47°38' W 122°23'0 0.0
2016-Aug-20 12:33N 47°38' W 122°23'0 0.0
2016-Aug-20 11:33N 47°38' W 122°23'0 0.0
2016-Aug-20 10:32N 47°38' W 122°23'0 0.0
2016-Aug-20 09:33N 47°38' W 122°23'0 0.0
2016-Aug-20 08:33N 47°38' W 122°23'0 0.0
2016-Aug-20 07:33N 47°38' W 122°23'0 0.0
2016-Aug-20 06:32N 47°38' W 122°23'0 0.0
2016-Aug-20 05:32N 47°38' W 122°23'0 0.0
2016-Aug-20 04:32N 47°38' W 122°23'0 0.0
2016-Aug-20 03:32N 47°38' W 122°23'0 0.0
2016-Aug-20 02:32N 47°38' W 122°23'0 0.0
2016-Aug-20 01:32N 47°38' W 122°23'0 0.0
2016-Aug-20 00:32N 47°38' W 122°23'0 0.0
2016-Aug-19 23:11N 47°38' W 122°23'0 0.0
2016-Aug-19 22:29N 47°38' W 122°23'0 0.0
2016-Aug-19 21:27N 47°38' W 122°23'0 0.0
2016-Aug-19 20:17N 47°38' W 122°23'0 0.0
2016-Aug-19 19:23N 47°38' W 122°23'0 0.0
2016-Aug-19 18:32N 47°38' W 122°23'0 0.0
2016-Aug-19 17:29N 47°38' W 122°23'0 0.0
2016-Aug-19 15:29N 47°38' W 122°23'0 0.0
2016-Aug-19 14:32N 47°38' W 122°23'0 0.0
2016-Aug-19 13:32N 47°38' W 122°23'0 0.0
2016-Aug-19 12:26N 47°38' W 122°23'0 0.0
2016-Aug-19 11:29N 47°38' W 122°23'0 0.0
2016-Aug-19 10:32N 47°38' W 122°23'0 0.0
2016-Aug-19 09:32N 47°38' W 122°23'0 0.0
2016-Aug-19 08:32N 47°38' W 122°23'0 0.0
2016-Aug-19 07:32N 47°38' W 122°23'0 0.0
2016-Aug-19 06:32N 47°38' W 122°23'0 0.0
2016-Aug-19 05:33N 47°38' W 122°23'  

Dump ship's entire track history